Latest Weather Observations for Hunters Hill

IDV60801

Issued at 9:35 pm EST Wednesday 23 April 2014 (issued every 30 minutes, with the page automatically refreshed every 10 minutes)

About weather observations | Map of weather stations | Latest weather observations for VIC | Other Formats
Station Details ID: 082139 Name: HUNTERS HILL Lat: -36.21 Lon: 147.54 Height: 981.0 m
Data from the previous 72 hours. | See also: Recent months at Hunters Hill
Date/Time
EST
Temp
°C
App
Temp
°C
Dew
Point
Rel
Hum
%
Delta-T
°C
Wind Press
QNH
hPa
Press
MSL
hPa
Rain
since 9 am
mm
Dir
 
Spd
km/h
Gust
km/h
Spd
kts
Gust
kts
23/09:30pm 11.7 10.3 9.6 87 1.1 NNW 7 13 4 7 - - 0.0
23/09:00pm 11.7 10.3 9.4 86 1.2 NNW 7 11 4 6 - - 0.0
23/08:30pm 12.0 10.2 9.6 85 1.3 N 9 15 5 8 - - 0.0
23/08:00pm 12.0 10.8 9.6 85 1.3 NNW 6 13 3 7 - - 0.0
23/07:30pm 12.0 10.8 9.6 85 1.3 NNW 6 11 3 6 - - 0.0
23/07:00pm 12.0 10.8 9.4 84 1.4 NW 6 11 3 6 - - 0.0
23/06:30pm 12.2 10.9 9.2 82 1.6 N 6 9 3 5 - - 0.0
23/06:00pm 12.2 11.2 9.0 81 1.7 NW 4 7 2 4 - - 0.0
23/05:30pm 12.6 11.0 8.9 78 2.0 NW 7 15 4 8 - - 0.0
23/05:00pm 13.7 12.3 9.0 73 2.5 NW 6 11 3 6 - - 0.0
23/04:30pm 13.7 12.5 9.4 75 2.3 N 6 9 3 5 - - 0.0
23/04:00pm 14.3 12.8 9.3 72 2.7 NW 7 13 4 7 - - 0.0
23/03:30pm 14.3 13.2 9.9 75 2.4 N 6 13 3 7 - - 0.0
23/03:00pm 14.1 12.8 9.3 73 2.6 NNW 6 11 3 6 - - 0.0
23/02:30pm 14.3 12.4 8.9 70 2.9 NW 9 19 5 10 - - 0.0
23/02:00pm 13.6 11.2 8.7 72 2.6 WNW 11 20 6 11 - - 0.0
23/01:30pm 14.2 11.8 8.8 70 2.9 NW 11 22 6 12 - - 0.0
23/01:00pm 14.1 11.8 8.9 71 2.8 NW 11 20 6 11 - - 0.0
23/12:30pm 14.1 12.2 9.1 72 2.7 NW 9 19 5 10 - - 0.0
23/12:00pm 13.7 12.3 9.6 76 2.2 N 7 15 4 8 - - 0.0
23/11:30am 14.8 13.5 10.0 73 2.6 N 7 17 4 9 - - 0.0
23/11:00am 14.7 13.7 10.9 78 2.1 NNE 7 13 4 7 - - 0.0
23/10:30am 13.4 11.6 9.3 76 2.2 N 9 20 5 11 - - 0.0
23/10:00am 12.8 11.4 10.9 88 1.0 N 9 17 5 9 - - 0.0
23/09:30am 11.7 11.5 11.7 100 0.0 NE 4 7 2 4 - - 0.0
23/09:00am 9.8 9.4 9.7 99 0.1 ENE 2 9 1 5 - - 4.2
23/08:30am 10.3 10.1 10.3 100 0.0 NE 2 6 1 3 - - 3.8
23/08:00am 9.1 7.8 9.1 100 0.0 NE 6 9 3 5 - - 3.8
23/07:30am 8.8 7.4 8.8 100 0.0 NNE 6 7 3 4 - - 3.8
23/07:00am 8.7 7.3 8.7 100 0.0 NNE 6 9 3 5 - - 3.8
23/06:30am 8.9 7.5 8.8 99 0.1 NNE 6 11 3 6 - - 3.8
23/06:00am 8.9 8.3 8.8 99 0.1 NE 2 9 1 5 - - 2.0
23/05:30am 9.1 8.1 9.0 99 0.1 NE 4 7 2 4 - - 1.0
23/05:00am 9.1 7.6 8.5 96 0.3 NNE 6 15 3 8 - - 1.0
23/04:30am 10.7 9.1 6.5 75 2.1 NNE 4 6 2 3 - - 0.0
23/04:00am 11.0 9.0 6.4 73 2.3 NNE 6 11 3 6 - - 0.0
23/03:30am 10.8 8.6 6.4 74 2.2 NNE 7 13 4 7 - - 0.0
23/03:00am 10.7 8.8 6.6 76 2.0 NNE 6 11 3 6 - - 0.0
23/02:30am 10.6 8.6 6.9 78 1.9 NNE 7 17 4 9 - - 0.0
23/02:00am 10.9 8.8 6.6 75 2.1 NNE 7 13 4 7 - - 0.0
23/01:30am 11.2 9.1 6.7 74 2.3 NNE 7 15 4 8 - - 0.0
23/01:00am 10.9 9.1 7.0 77 2.0 NNE 6 9 3 5 - - 0.0
23/12:30am 10.8 8.9 6.9 77 2.0 NNE 6 9 3 5 - - 0.0
23/12:00am 10.8 8.9 6.7 76 2.0 NNE 6 9 3 5 - - 0.0
 
Date/Time
EST
Temp
°C
App
Temp
°C
Dew
Point
Rel
Hum
%
Delta-T
°C
Wind Press
QNH
hPa
Press
MSL
hPa
Rain
since 9 am
mm
Dir
 
Spd
km/h
Gust
km/h
Spd
kts
Gust
kts
22/11:30pm 11.6 9.5 6.7 72 2.5 NNE 7 15 4 8 - - 0.0
22/11:00pm 11.9 9.5 6.8 71 2.6 NNE 9 15 5 8 - - 0.0
22/10:30pm 12.2 9.8 6.9 70 2.7 N 9 15 5 8 - - 0.0
22/10:00pm 11.5 9.5 7.2 75 2.2 NNE 7 15 4 8 - - 0.0
22/09:30pm 11.5 9.9 7.8 78 1.9 ENE 6 7 3 4 - - 0.0
22/09:00pm 11.2 9.6 7.9 80 1.7 E 6 7 3 4 - - 0.0
22/08:30pm 11.3 9.8 8.3 82 1.6 E 6 7 3 4 - - 0.0
22/08:00pm 11.8 10.1 7.7 76 2.1 NNE 6 7 3 4 - - 0.0
22/07:30pm 11.7 10.0 7.4 75 2.2 NNE 6 7 3 4 - - 0.0
22/07:00pm 11.9 10.3 7.8 76 2.1 NNE 6 7 3 4 - - 0.0
22/06:30pm 11.9 10.3 8.2 78 1.9 NNE 6 9 3 5 - - 0.0
22/06:00pm 12.0 10.5 8.3 78 1.9 NNE 6 9 3 5 - - 0.0
22/05:30pm 12.8 11.7 8.5 75 2.3 NE 4 7 2 4 - - 0.0
22/05:00pm 13.0 12.3 8.7 75 2.3 NE 2 6 1 3 - - 0.0
22/04:30pm 13.9 12.8 8.5 70 2.9 NE 4 7 2 4 - - 0.0
22/04:00pm 15.2 13.9 7.7 61 3.9 NNE 4 11 2 6 - - 0.0
22/03:30pm 14.8 12.7 5.9 55 4.5 N 6 11 3 6 - - 0.0
22/03:00pm 15.5 13.3 5.4 51 5.1 NNW 6 11 3 6 - - 0.0
22/02:30pm 15.9 14.2 7.4 57 4.5 NNW 6 11 3 6 - - 0.0
22/02:00pm 15.7 14.0 7.5 58 4.3 WNW 6 13 3 7 - - 0.0
22/01:30pm 13.9 12.2 7.7 66 3.2 WNW 6 9 3 5 - - 0.0
22/01:00pm 15.6 14.1 8.4 62 3.8 WNW 6 13 3 7 - - 0.0
22/12:30pm 14.8 12.8 6.4 57 4.3 WNW 6 13 3 7 - - 0.0
22/12:00pm 14.5 12.6 6.6 59 4.0 NW 6 11 3 6 - - 0.0
22/11:30am 14.3 12.5 7.1 62 3.7 NW 6 15 3 8 - - 0.0
22/11:00am 13.6 11.7 6.5 62 3.6 NNW 6 9 3 5 - - 0.0
22/10:30am 12.8 12.0 8.1 73 2.4 NE 2 9 1 5 - - 0.0
22/10:00am 12.7 11.3 7.4 70 2.7 NNE 4 9 2 5 - - 0.0
22/09:30am 12.5 11.2 7.6 72 2.5 NNE 4 7 2 4 - - 0.0
22/09:00am 10.9 9.4 6.6 75 2.1 NNE 4 11 2 6 - - 0.0
22/08:30am 9.1 7.7 7.2 88 0.9 NNE 4 6 2 3 - - 0.0
22/08:00am 9.2 7.5 7.5 89 0.9 NNE 6 9 3 5 - - 0.0
22/07:30am 9.2 7.2 7.2 87 1.0 NNE 7 13 4 7 - - 0.0
22/07:00am 9.1 6.8 7.4 89 0.9 NNE 9 15 5 8 - - 0.0
22/06:30am 9.0 7.1 7.6 91 0.7 NNE 7 13 4 7 - - 0.0
22/06:00am 8.8 7.0 7.9 94 0.5 NNE 7 13 4 7 - - 0.0
22/05:30am 8.8 6.6 7.9 94 0.5 NNE 9 13 5 7 - - 0.0
22/05:00am 8.2 6.4 7.0 92 0.6 N 6 11 3 6 - - 0.0
22/04:30am 7.8 6.1 5.9 88 0.9 N 4 6 2 3 - - 0.0
22/04:00am 8.3 6.7 6.4 88 0.9 N 4 7 2 4 - - 0.0
22/03:30am 8.5 6.6 6.5 87 1.0 N 6 6 3 3 - - 0.0
22/03:00am 8.8 7.3 6.8 87 1.0 N 4 6 2 3 - - 0.0
22/02:30am 8.8 7.3 6.9 88 0.9 N 4 7 2 4 - - 0.0
22/02:00am 9.0 7.5 6.8 86 1.1 N 4 6 2 3 - - 0.0
22/01:30am 8.9 7.4 6.7 86 1.1 N 4 6 2 3 - - 0.0
22/01:00am 8.8 7.3 6.9 88 0.9 N 4 7 2 4 - - 0.0
22/12:30am 8.0 6.8 6.5 90 0.7 N 2 4 1 2 - - 0.0
22/12:00am 7.7 6.9 6.3 91 0.7 CALM 0 0 0 0 - - 0.0
 
Date/Time
EST
Temp
°C
App
Temp
°C
Dew
Point
Rel
Hum
%
Delta-T
°C
Wind Press
QNH
hPa
Press
MSL
hPa
Rain
since 9 am
mm
Dir
 
Spd
km/h
Gust
km/h
Spd
kts
Gust
kts
21/11:30pm 7.6 6.0 6.4 92 0.6 N 4 6 2 3 - - 0.0
21/11:00pm 7.7 6.5 6.3 91 0.7 N 2 4 1 2 - - 0.0
21/10:30pm 7.6 6.0 6.4 92 0.6 N 4 6 2 3 - - 0.0
21/10:00pm 7.9 6.3 6.4 90 0.7 N 4 6 2 3 - - 0.0
21/09:30pm 8.0 6.4 6.5 90 0.7 N 4 6 2 3 - - 0.0
21/09:00pm 7.8 6.2 6.3 90 0.7 N 4 6 2 3 - - 0.0
21/08:30pm 7.9 6.6 6.0 88 0.9 N 2 4 1 2 - - 0.0
21/08:00pm 8.4 6.8 6.2 86 1.1 N 4 7 2 4 - - 0.0
21/07:30pm 8.4 6.7 5.9 84 1.2 N 4 4 2 2 - - 0.0
21/07:00pm 8.6 6.9 5.9 83 1.3 N 4 6 2 3 - - 0.0
21/06:30pm 8.8 7.1 5.9 82 1.4 N 4 6 2 3 - - 0.0
21/06:00pm 8.8 7.1 5.7 81 1.5 N 4 6 2 3 - - 0.0
21/05:30pm 9.3 7.6 5.9 79 1.7 N 4 7 2 4 - - 0.0
21/05:00pm 9.6 7.6 6.3 80 1.6 NNW 6 9 3 5 - - 0.0
21/04:30pm 10.3 8.6 6.1 75 2.1 N 4 7 2 4 - - 0.0
21/04:00pm 11.1 9.4 6.0 71 2.5 N 4 7 2 4 - - 0.0
21/03:30pm 11.4 9.8 6.5 72 2.4 N 4 7 2 4 - - 0.0
21/03:00pm 11.4 9.7 5.9 69 2.7 N 4 9 2 5 - - 0.0
21/02:30pm 11.3 9.5 5.6 68 2.8 N 4 6 2 3 - - 0.0
21/02:00pm 10.8 8.8 4.3 64 3.1 N 4 6 2 3 - - 0.0
21/01:30pm 11.1 9.0 4.1 62 3.3 N 4 6 2 3 - - 0.0
21/01:00pm 11.5 9.7 5.2 65 3.1 NNW 4 9 2 5 - - 0.0
21/12:30pm 11.1 9.3 5.4 68 2.8 NNE 4 9 2 5 - - 0.0
21/12:00pm 11.3 9.5 5.2 66 3.0 N 4 9 2 5 - - 0.0
21/11:30am 10.5 8.5 4.6 67 2.8 NE 4 7 2 4 - - 0.0
21/11:00am 10.8 8.8 4.5 65 3.0 WNW 4 7 2 4 - - 0.0
21/10:30am 8.9 6.9 2.5 64 2.9 W 2 6 1 3 - - 0.0
21/10:00am 8.8 6.4 2.4 64 2.9 W 4 6 2 3 - - 0.0
21/09:30am 9.5 7.1 2.4 61 3.2 W 4 6 2 3 - - 0.0
21/09:00am 8.2 6.6 2.2 66 2.7 CALM 0 4 0 2 - - 0.0
21/08:30am 7.6 6.0 2.3 69 2.3 CALM 0 0 0 0 - - 0.0
21/08:00am 6.5 4.5 2.2 74 1.9 W 2 4 1 2 - - 0.0
21/07:30am 5.2 2.8 2.0 80 1.4 W 4 7 2 4 - - 0.0
21/07:00am 4.7 2.9 1.0 77 1.5 CALM 0 0 0 0 - - 0.0
21/06:30am 4.6 2.8 0.9 77 1.5 CALM 0 2 0 1 - - 0.0
21/06:00am 4.7 2.5 1.0 77 1.5 W 2 4 1 2 - - 0.0
21/05:30am 4.8 2.6 0.9 76 1.6 W 2 6 1 3 - - 0.0
21/05:00am 4.7 2.5 1.0 77 1.5 W 2 4 1 2 - - 0.0
21/04:30am 4.9 2.0 1.2 77 1.5 W 6 9 3 5 - - 0.0
21/04:00am 4.7 2.1 1.2 78 1.5 W 4 7 2 4 - - 0.0
21/03:30am 4.3 1.7 1.0 79 1.4 W 4 7 2 4 - - 0.0
21/03:00am 4.3 2.1 1.3 81 1.3 W 2 6 1 3 - - 0.0
21/02:30am 4.0 2.2 1.0 81 1.2 CALM 0 2 0 1 - - 0.0
21/02:00am 4.0 2.2 1.5 84 1.0 CALM 0 0 0 0 - - 0.0
21/01:30am 3.9 2.2 1.9 87 0.8 CALM 0 0 0 0 - - 0.0
21/01:00am 4.0 2.3 1.9 86 0.9 CALM 0 0 0 0 - - 0.0
21/12:30am 4.2 2.4 1.2 81 1.2 CALM 0 2 0 1 - - 0.0
21/12:00am 4.3 2.5 1.2 80 1.3 CALM 0 0 0 0 - - 0.0
 
Date/Time
EST
Temp
°C
App
Temp
°C
Dew
Point
Rel
Hum
%
Delta-T
°C
Wind Press
QNH
hPa
Press
MSL
hPa
Rain
since 9 am
mm
Dir
 
Spd
km/h
Gust
km/h
Spd
kts
Gust
kts
20/11:30pm 4.4 2.6 1.4 81 1.3 CALM 0 0 0 0 - - 0.0
20/11:00pm 4.3 2.5 1.2 80 1.3 CALM 0 0 0 0 - - 0.0
20/10:30pm 4.5 2.7 1.5 81 1.3 CALM 0 0 0 0 - - 0.0
20/10:00pm 4.8 3.0 1.3 78 1.5 CALM 0 2 0 1 - - 0.0

Other Formats:

Comma delimited format used in spreadsheet applications
http://www.bom.gov.au/fwo/IDV60801/IDV60801.94878.axf

JavaScript Object Notation format (JSON) in row-major order
http://www.bom.gov.au/fwo/IDV60801/IDV60801.94878.json